Time;durP1;ratioP1;P1;durP2;ratioP2;P2;SDS_P1;SDS_P2;PMS_P1;PMS_P2;Temp;Humidity;BMP_temperature;BMP_pressure;BME280_temperature;BME280_humidity;BME280_pressure;Samples;Min_cycle;Max_cycle;Signal;HPM_P1;HPM_P2
2022/04/03 00:00:49;;;;;;;0.20;0.20;;;;;;;5.02;88.26;99557.00;5001959;28;20022;-78
2022/04/03 00:03:16;;;;;;;0.30;0.30;;;;;;;5.07;88.42;99543.78;5002259;28;20030;-78
2022/04/03 00:05:43;;;;;;;0.20;0.20;;;;;;;5.23;85.68;99544.72;5001398;28;20472;-78
2022/04/03 00:08:12;;;;;;;0.20;0.20;;;;;;;5.20;85.21;99556.44;4984031;28;20465;-78
2022/04/03 00:10:39;;;;;;;0.22;0.22;;;;;;;4.63;85.35;99482.78;4999865;28;20030;-78
2022/04/03 00:13:06;;;;;;;0.30;0.30;;;;;;;5.05;86.07;99557.09;5000025;28;20073;-78
2022/04/03 00:15:32;;;;;;;0.20;0.20;;;;;;;4.99;86.63;99562.03;4999557;28;20029;-78
2022/04/03 00:18:01;;;;;;;0.20;0.20;;;;;;;4.87;86.88;99573.00;4998366;28;20034;-78
2022/04/03 00:20:29;;;;;;;0.20;0.20;;;;;;;4.60;88.66;99560.63;4998294;28;20508;-78
2022/04/03 00:22:57;;;;;;;0.30;0.30;;;;;;;4.35;90.55;99539.63;4998094;28;20041;-78
2022/04/03 00:25:23;;;;;;;0.20;0.20;;;;;;;4.40;91.78;99565.00;4997893;28;20477;-79
2022/04/03 00:27:51;;;;;;;0.20;0.20;;;;;;;4.35;92.04;99561.66;4999385;28;20377;-79
2022/04/03 00:30:19;;;;;;;0.30;0.30;;;;;;;4.37;92.81;99564.91;4999117;28;20023;-78
2022/04/03 00:32:48;;;;;;;0.30;0.30;;;;;;;4.38;93.31;99572.81;4998627;28;20124;-78
2022/04/03 00:35:13;;;;;;;0.20;0.20;;;;;;;4.38;93.44;99559.03;4998915;28;20491;-78
2022/04/03 00:37:45;;;;;;;0.20;0.20;;;;;;;4.49;93.77;99578.72;4998660;28;20034;-78
2022/04/03 00:40:11;;;;;;;0.30;0.30;;;;;;;4.53;94.51;99565.06;4998631;28;20026;-78
2022/04/03 00:42:37;;;;;;;0.30;0.30;;;;;;;4.55;92.81;99544.31;4997414;28;20462;-79
2022/04/03 00:45:04;;;;;;;0.30;0.30;;;;;;;4.49;93.06;99545.66;4997445;28;20019;-78
2022/04/03 00:47:35;;;;;;;0.30;0.30;;;;;;;4.37;94.44;99553.88;4996023;28;20149;-79
2022/04/03 00:50:07;;;;;;;0.20;0.20;;;;;;;4.32;94.88;99545.81;4996640;28;20026;-76
2022/04/03 00:52:35;;;;;;;0.30;0.30;;;;;;;4.21;94.70;99523.38;4998428;28;20158;-77
2022/04/03 00:55:02;;;;;;;0.30;0.30;;;;;;;4.14;95.59;99518.41;4997348;28;20030;-76
2022/04/03 00:57:31;;;;;;;0.30;0.30;;;;;;;4.07;96.22;99528.34;4996609;28;20031;-78
2022/04/03 00:59:58;;;;;;;0.20;0.20;;;;;;;4.16;96.77;99543.66;4996704;28;20469;-77
2022/04/03 01:02:24;;;;;;;0.20;0.20;;;;;;;4.26;97.13;99556.22;4997656;28;20389;-78
2022/04/03 01:04:50;;;;;;;0.20;0.20;;;;;;;4.51;97.82;99576.41;4997000;28;20041;-76
2022/04/03 01:07:21;;;;;;;0.30;0.30;;;;;;;4.55;96.70;99547.06;4995782;28;20061;-78
2022/04/03 01:09:47;;;;;;;0.20;0.20;;;;;;;4.37;95.28;99526.34;4996585;28;20061;-78
2022/04/03 01:12:12;;;;;;;0.20;0.20;;;;;;;4.59;92.10;99527.91;4995858;28;20397;-78
2022/04/03 01:14:43;;;;;;;0.30;0.30;;;;;;;4.49;92.41;99512.59;4995071;28;20469;-78
2022/04/03 01:17:11;;;;;;;0.20;0.20;;;;;;;4.54;91.09;99515.16;4994350;28;20036;-78
2022/04/03 01:19:40;;;;;;;0.30;0.30;;;;;;;4.44;91.65;99504.56;4994315;28;20512;-78
2022/04/03 01:22:07;;;;;;;0.28;0.28;;;;;;;4.47;91.83;99521.22;4994298;28;20026;-78
2022/04/03 01:24:33;;;;;;;0.30;0.30;;;;;;;4.47;91.95;99523.97;4994600;28;20027;-78
2022/04/03 01:26:59;;;;;;;0.20;0.20;;;;;;;4.47;92.09;99526.72;4995920;28;20572;-78
2022/04/03 01:29:25;;;;;;;0.20;0.20;;;;;;;4.50;92.91;99546.47;4995627;28;20054;-76
2022/04/03 01:31:54;;;;;;;0.20;0.20;;;;;;;4.53;94.09;99535.59;4995891;28;20065;-76
2022/04/03 01:34:20;;;;;;;0.30;0.30;;;;;;;4.52;94.56;99533.16;4997527;28;20034;-76
2022/04/03 01:36:47;;;;;;;0.30;0.30;;;;;;;4.35;94.71;99507.38;4998246;28;20026;-77
2022/04/03 01:39:13;;;;;;;0.30;0.30;;;;;;;4.68;95.80;99547.91;4997885;28;20069;-76
2022/04/03 01:41:40;;;;;;;0.30;0.30;;;;;;;4.72;95.34;99543.34;4997123;28;20045;-77
2022/04/03 01:44:07;;;;;;;0.30;0.30;;;;;;;4.70;94.36;99535.41;4994514;28;20037;-76
2022/04/03 01:46:33;;;;;;;0.30;0.30;;;;;;;4.60;92.51;99546.84;4996302;28;20031;-77
2022/04/03 01:48:59;;;;;;;0.30;0.30;;;;;;;4.61;92.83;99537.44;4995841;28;20506;-78
2022/04/03 01:51:24;;;;;;;0.20;0.20;;;;;;;4.68;91.54;99543.19;4995922;28;20057;-78
2022/04/03 01:53:53;;;;;;;0.30;0.30;;;;;;;4.69;92.63;99539.31;4995881;28;20041;-77
2022/04/03 01:56:18;;;;;;;0.30;0.30;;;;;;;4.72;92.99;99533.13;4997693;28;20089;-77
2022/04/03 01:58:44;;;;;;;0.20;0.20;;;;;;;4.82;93.73;99542.09;4998188;28;20034;-77
2022/04/03 02:01:16;;;;;;;0.30;0.30;;;;;;;5.03;93.71;99531.03;4997796;28;20053;-78
2022/04/03 02:03:41;;;;;;;0.20;0.20;;;;;;;4.86;92.28;99527.31;4997380;28;20030;-77
2022/04/03 02:06:07;;;;;;;0.30;0.30;;;;;;;4.78;93.41;99530.94;4997866;28;20030;-77
2022/04/03 02:08:33;;;;;;;0.20;0.20;;;;;;;4.91;93.47;99529.84;4998142;28;20042;-77
2022/04/03 02:11:02;;;;;;;0.30;0.30;;;;;;;4.79;92.79;99531.75;4999675;28;20190;-77
2022/04/03 02:13:32;;;;;;;0.30;0.30;;;;;;;4.77;92.95;99540.38;5002355;28;20462;-77
2022/04/03 02:15:58;;;;;;;0.30;0.30;;;;;;;4.88;93.34;99554.53;5003011;28;20097;-77
2022/04/03 02:18:28;;;;;;;0.30;0.30;;;;;;;4.94;94.24;99544.88;5002038;28;20026;-77
2022/04/03 02:20:57;;;;;;;0.20;0.20;;;;;;;4.89;93.98;99548.66;5001934;28;20385;-77
2022/04/03 02:23:25;;;;;;;0.30;0.30;;;;;;;4.94;93.36;99558.66;5001593;28;20038;-79
2022/04/03 02:25:53;;;;;;;0.20;0.20;;;;;;;4.88;92.97;99551.75;5002085;28;20373;-78
2022/04/03 02:28:22;;;;;;;0.30;0.30;;;;;;;4.97;92.59;99549.72;5002592;28;20034;-77
2022/04/03 02:30:51;;;;;;;0.22;0.22;;;;;;;4.97;90.29;99544.22;5000205;28;20377;-77
2022/04/03 02:33:16;;;;;;;0.20;0.20;;;;;;;4.96;91.63;99537.09;5001014;28;20062;-78
2022/04/03 02:35:42;;;;;;;0.30;0.30;;;;;;;4.99;92.45;99548.22;5002402;28;20034;-77
2022/04/03 02:38:11;;;;;;;0.20;0.20;;;;;;;4.88;92.89;99543.50;5002658;28;20504;-78
2022/04/03 02:40:37;;;;;;;0.20;0.20;;;;;;;4.95;93.36;99552.00;5003077;28;20049;-78
2022/04/03 02:43:03;;;;;;;0.20;0.20;;;;;;;4.92;93.45;99552.72;5002698;28;20469;-78
2022/04/03 02:45:31;;;;;;;0.20;0.20;;;;;;;4.98;93.96;99554.91;5001963;28;20030;-78
2022/04/03 02:48:00;;;;;;;0.30;0.30;;;;;;;5.02;91.89;99552.28;5001691;28;20090;-78
2022/04/03 02:50:26;;;;;;;0.20;0.20;;;;;;;5.19;92.45;99556.78;5001686;28;20037;-78
2022/04/03 02:52:55;;;;;;;0.30;0.30;;;;;;;5.31;91.33;99536.69;5000266;28;20052;-77
2022/04/03 02:55:25;;;;;;;0.20;0.20;;;;;;;5.17;91.21;99551.63;5000967;28;20034;-79
2022/04/03 02:57:52;;;;;;;0.20;0.20;;;;;;;5.17;91.76;99531.50;4999903;28;20369;-80
2022/04/03 03:00:17;;;;;;;0.20;0.20;;;;;;;5.31;88.88;99544.97;4998725;28;20366;-80
2022/04/03 03:02:48;;;;;;;0.30;0.30;;;;;;;5.26;87.16;99552.31;4998608;28;20030;-79
2022/04/03 03:05:14;;;;;;;0.25;0.25;;;;;;;5.12;88.18;99557.34;4983930;28;20381;-77
2022/04/03 03:07:42;;;;;;;0.20;0.20;;;;;;;5.30;89.15;99557.94;5001245;28;20041;-77
2022/04/03 03:10:12;;;;;;;0.20;0.20;;;;;;;5.13;88.80;99564.47;5000702;28;20485;-79
2022/04/03 03:12:40;;;;;;;0.20;0.20;;;;;;;5.15;89.65;99567.69;5002387;28;20069;-78
2022/04/03 03:15:08;;;;;;;0.30;0.30;;;;;;;5.02;89.61;99554.22;5002050;28;20444;-77
2022/04/03 03:17:39;;;;;;;0.30;0.30;;;;;;;5.11;89.33;99554.91;4999329;28;20543;-78
2022/04/03 03:20:08;;;;;;;0.30;0.30;;;;;;;5.10;89.74;99572.63;4999251;28;20038;-78
2022/04/03 03:22:36;;;;;;;0.20;0.20;;;;;;;5.18;90.19;99575.28;4999692;28;20037;-79
2022/04/03 03:25:05;;;;;;;0.20;0.20;;;;;;;5.22;89.93;99587.25;5000959;28;20030;-78
2022/04/03 03:27:31;;;;;;;0.20;0.20;;;;;;;5.21;90.72;99591.13;5002087;28;20022;-78
2022/04/03 03:29:59;;;;;;;0.20;0.20;;;;;;;5.30;91.43;99591.06;5002321;28;20041;-78
2022/04/03 03:32:25;;;;;;;0.20;0.20;;;;;;;5.27;91.35;99602.75;5000924;28;20046;-78
2022/04/03 03:34:51;;;;;;;0.20;0.20;;;;;;;5.30;91.62;99607.59;5001794;28;20045;-78
2022/04/03 03:37:17;;;;;;;0.20;0.20;;;;;;;5.34;91.77;99597.50;5001041;28;20049;-78
2022/04/03 03:39:45;;;;;;;0.20;0.20;;;;;;;5.40;90.89;99600.84;5000291;28;20389;-77
2022/04/03 03:42:14;;;;;;;0.20;0.20;;;;;;;5.40;91.03;99606.38;5000030;28;20036;-77
2022/04/03 03:44:40;;;;;;;0.30;0.30;;;;;;;5.48;91.15;99600.72;4999756;28;20125;-77
2022/04/03 03:47:07;;;;;;;0.30;0.30;;;;;;;5.59;90.67;99586.47;4999823;28;20504;-78
2022/04/03 03:49:33;;;;;;;0.25;0.25;;;;;;;5.48;88.52;99575.88;4999262;28;20460;-77
2022/04/03 03:52:03;;;;;;;0.20;0.20;;;;;;;5.39;90.27;99593.72;5000978;28;20428;-77
2022/04/03 03:54:29;;;;;;;0.20;0.20;;;;;;;5.32;90.50;99590.69;4999615;28;20488;-78
2022/04/03 03:56:54;;;;;;;0.20;0.20;;;;;;;5.20;90.91;99595.06;4982796;28;20069;-77
2022/04/03 03:59:25;;;;;;;0.20;0.20;;;;;;;5.21;92.02;99601.38;4999497;28;20035;-78
2022/04/03 04:01:51;;;;;;;0.30;0.30;;;;;;;5.19;92.55;99604.47;4999962;28;20105;-77
2022/04/03 04:04:20;;;;;;;0.20;0.20;;;;;;;5.20;93.38;99602.53;4999916;28;20132;-77
2022/04/03 04:06:45;;;;;;;0.20;0.20;;;;;;;5.28;93.91;99600.84;5000375;28;20489;-78
2022/04/03 04:09:12;;;;;;;0.20;0.20;;;;;;;5.36;92.97;99616.47;4999864;28;20026;-78
2022/04/03 04:11:41;;;;;;;0.30;0.30;;;;;;;5.33;91.72;99615.22;5000271;28;20030;-78
2022/04/03 04:14:09;;;;;;;0.20;0.20;;;;;;;5.39;91.61;99613.03;4997953;28;20033;-77
2022/04/03 04:16:42;;;;;;;0.20;0.20;;;;;;;5.22;91.65;99612.09;4997604;28;20030;-79
2022/04/03 04:19:11;;;;;;;0.30;0.30;;;;;;;5.23;91.35;99624.72;4997711;28;20492;-77
2022/04/03 04:21:39;;;;;;;0.20;0.20;;;;;;;5.22;92.43;99634.16;4996554;28;20034;-77
2022/04/03 04:24:05;;;;;;;0.20;0.20;;;;;;;5.25;92.50;99630.69;4997826;28;20030;-79
2022/04/03 04:26:30;;;;;;;0.30;0.30;;;;;;;5.18;92.59;99626.88;4997750;28;20433;-79
2022/04/03 04:29:01;;;;;;;0.25;0.25;;;;;;;5.08;93.28;99622.59;4997632;28;20536;-77
2022/04/03 04:31:27;;;;;;;0.30;0.30;;;;;;;5.19;93.73;99628.50;4996578;28;20030;-78
2022/04/03 04:33:58;;;;;;;0.30;0.30;;;;;;;5.02;93.38;99637.75;4996597;28;20470;-77
2022/04/03 04:36:25;;;;;;;0.30;0.30;;;;;;;4.90;95.19;99623.91;4997991;28;20489;-77
2022/04/03 04:38:54;;;;;;;0.22;0.22;;;;;;;4.94;95.82;99633.91;4998472;28;20057;-77
2022/04/03 04:41:19;;;;;;;0.20;0.20;;;;;;;5.01;96.58;99649.94;4998974;28;20053;-77
2022/04/03 04:43:48;;;;;;;0.20;0.20;;;;;;;4.98;95.28;99647.84;4997839;28;20034;-79
2022/04/03 04:46:14;;;;;;;0.20;0.20;;;;;;;4.98;95.21;99651.41;4997016;28;20029;-77
2022/04/03 04:48:42;;;;;;;0.20;0.20;;;;;;;5.03;94.84;99663.38;4996989;28;20397;-77
2022/04/03 04:51:09;;;;;;;0.30;0.30;;;;;;;5.10;95.71;99656.16;4997670;28;20085;-77
2022/04/03 04:53:35;;;;;;;0.22;0.22;;;;;;;5.13;94.95;99679.50;4998117;28;20038;-77
2022/04/03 04:56:01;;;;;;;0.20;0.20;;;;;;;5.28;95.37;99675.31;4998058;28;20105;-77
2022/04/03 04:58:30;;;;;;;0.20;0.20;;;;;;;5.22;94.92;99681.03;4997216;28;20428;-77
2022/04/03 05:01:01;;;;;;;0.20;0.20;;;;;;;5.31;92.65;99680.94;4997285;28;20466;-78
2022/04/03 05:03:30;;;;;;;0.20;0.20;;;;;;;5.36;91.72;99688.19;4997064;28;20089;-81
2022/04/03 05:05:58;;;;;;;0.30;0.30;;;;;;;5.36;92.08;99688.19;4998738;28;20426;-80
2022/04/03 05:08:24;;;;;;;0.20;0.20;;;;;;;5.38;93.38;99664.66;4997601;28;20038;-78
2022/04/03 05:10:52;;;;;;;0.20;0.20;;;;;;;5.24;91.50;99681.50;4998288;28;20041;-77
2022/04/03 05:13:19;;;;;;;0.20;0.20;;;;;;;5.22;92.63;99688.50;4982350;28;20105;-78
2022/04/03 05:15:45;;;;;;;0.25;0.25;;;;;;;5.36;93.74;99696.47;4998818;28;20022;-78
2022/04/03 05:18:11;;;;;;;0.30;0.30;;;;;;;5.40;93.33;99700.16;4999039;28;20471;-77
2022/04/03 05:20:40;;;;;;;0.30;0.30;;;;;;;5.50;93.18;99711.59;4999754;28;20031;-79
2022/04/03 05:23:06;;;;;;;0.20;0.20;;;;;;;5.51;93.28;99718.72;5000029;28;20034;-78
2022/04/03 05:25:34;;;;;;;0.30;0.30;;;;;;;5.50;93.62;99727.34;4999510;28;20432;-78
2022/04/03 05:28:03;;;;;;;0.30;0.30;;;;;;;5.62;92.82;99726.56;4999453;28;20133;-78
2022/04/03 05:30:31;;;;;;;0.30;0.30;;;;;;;5.58;91.51;99726.44;4999723;28;20046;-79
2022/04/03 05:32:59;;;;;;;0.20;0.20;;;;;;;5.43;91.01;99716.03;4997137;28;20043;-78
2022/04/03 05:35:25;;;;;;;0.30;0.30;;;;;;;5.43;91.76;99727.06;5000022;28;20027;-78
2022/04/03 05:37:50;;;;;;;0.20;0.20;;;;;;;5.56;92.17;99716.88;4997810;28;20118;-78
2022/04/03 05:40:19;;;;;;;0.20;0.20;;;;;;;5.57;91.48;99718.50;4997960;28;20030;-78
2022/04/03 05:42:44;;;;;;;0.30;0.30;;;;;;;5.38;90.20;99694.16;4998790;28;20049;-78
2022/04/03 05:45:13;;;;;;;0.20;0.20;;;;;;;5.51;89.53;99734.47;4998463;28;20032;-78
2022/04/03 05:47:39;;;;;;;0.20;0.20;;;;;;;5.57;90.57;99744.13;4998839;28;20422;-78
2022/04/03 05:50:05;;;;;;;0.30;0.30;;;;;;;5.79;90.66;99746.50;4999313;28;20034;-78
2022/04/03 05:52:47;;;;;;;0.20;0.20;;;;;;;5.97;90.36;99743.59;4999170;28;20038;-79
2022/04/03 05:55:15;;;;;;;0.20;0.20;;;;;;;6.76;89.02;99744.97;4999749;28;20023;-78
2022/04/03 05:57:41;;;;;;;0.30;0.30;;;;;;;7.48;87.39;99739.56;4999660;28;20022;-78
2022/04/03 06:00:12;;;;;;;0.20;0.20;;;;;;;7.56;82.36;99738.63;5000344;28;20037;-78
2022/04/03 06:02:59;;;;;;;0.20;0.20;;;;;;;9.02;79.52;99751.75;5000895;28;20030;-78
2022/04/03 06:05:28;;;;;;;0.20;0.20;;;;;;;10.02;69.74;99748.22;5002060;28;20445;-78
2022/04/03 06:07:53;;;;;;;0.20;0.20;;;;;;;10.75;64.32;99758.97;5002648;28;20058;-78
2022/04/03 06:10:23;;;;;;;0.20;0.20;;;;;;;9.40;67.03;99756.53;5003506;28;20038;-78
2022/04/03 06:12:53;;;;;;;0.30;0.30;;;;;;;8.40;71.77;99751.50;5004756;28;20034;-79
2022/04/03 06:15:23;;;;;;;0.20;0.20;;;;;;;8.53;74.00;99769.66;5004483;28;20462;-78
2022/04/03 06:17:53;;;;;;;0.30;0.30;;;;;;;8.83;74.73;99781.06;5003734;28;20022;-79
2022/04/03 06:20:19;;;;;;;0.20;0.20;;;;;;;9.03;73.99;99781.13;5004337;28;20381;-78
2022/04/03 06:22:48;;;;;;;0.20;0.20;;;;;;;9.07;73.11;99779.22;5005601;28;20139;-78
2022/04/03 06:25:20;;;;;;;0.30;0.30;;;;;;;8.93;73.81;99772.19;5009332;28;20042;-78
2022/04/03 06:27:46;;;;;;;0.30;0.30;;;;;;;8.95;73.62;99780.16;5004612;28;20022;-77
2022/04/03 06:30:12;;;;;;;0.20;0.20;;;;;;;8.92;73.72;99790.00;5005032;28;20126;-78
2022/04/03 06:32:41;;;;;;;0.20;0.20;;;;;;;8.95;74.88;99784.88;5002340;28;20493;-78
2022/04/03 06:35:10;;;;;;;0.20;0.20;;;;;;;8.89;74.64;99785.19;5003380;28;20030;-78
2022/04/03 06:37:36;;;;;;;0.20;0.20;;;;;;;8.58;73.42;99799.09;5003782;28;20030;-78
2022/04/03 07:11:04;;;;;;;0.20;0.20;;;;;;;7.38;81.66;99847.22;5589983;23;20054;-77
2022/04/03 07:13:30;;;;;;;0.20;0.20;;;;;;;7.29;85.23;99861.97;4981484;28;20488;-73
2022/04/03 07:15:57;;;;;;;0.30;0.30;;;;;;;7.38;84.77;99852.75;4981166;28;20058;-76
2022/04/03 07:18:22;;;;;;;0.20;0.20;;;;;;;7.58;85.61;99857.31;4980535;28;20034;-74
2022/04/03 07:20:48;;;;;;;0.20;0.20;;;;;;;7.73;84.43;99870.44;4980594;28;20041;-74
2022/04/03 07:23:17;;;;;;;0.20;0.20;;;;;;;8.05;84.99;99857.50;4981187;28;20364;-74
2022/04/03 07:25:42;;;;;;;0.30;0.30;;;;;;;8.64;81.09;99858.66;4980359;28;20500;-76
2022/04/03 07:28:08;;;;;;;0.20;0.20;;;;;;;9.42;78.86;99870.81;4980567;28;20030;-76
2022/04/03 07:30:34;;;;;;;0.20;0.20;;;;;;;10.30;73.01;99871.09;4980400;28;20034;-75
2022/04/03 07:32:59;;;;;;;0.20;0.20;;;;;;;11.43;71.11;99882.50;4980234;28;20069;-75
2022/04/03 07:35:25;;;;;;;0.20;0.20;;;;;;;12.16;64.89;99879.50;4980817;28;20064;-76
2022/04/03 07:37:56;;;;;;;0.30;0.30;;;;;;;13.05;64.20;99885.97;4981095;28;20022;-76
2022/04/03 07:40:25;;;;;;;0.20;0.20;;;;;;;13.86;58.63;99896.09;4982068;28;20088;-76
2022/04/03 07:42:52;;;;;;;0.20;0.20;;;;;;;14.65;53.86;99884.00;4980605;28;20026;-76
2022/04/03 07:45:25;;;;;;;0.20;0.20;;;;;;;15.78;52.57;99894.75;4980116;28;20041;-76
2022/04/03 07:47:53;;;;;;;0.20;0.20;;;;;;;15.89;50.76;99893.53;4979578;28;20026;-75
2022/04/03 07:50:20;;;;;;;0.20;0.20;;;;;;;14.64;50.69;99913.16;4997185;28;20038;-75
2022/04/03 07:52:48;;;;;;;0.20;0.20;;;;;;;14.04;53.22;99919.34;4980198;28;20030;-75
2022/04/03 07:55:14;;;;;;;0.20;0.20;;;;;;;13.68;55.38;99923.16;4980686;28;20034;-75
2022/04/03 07:57:47;;;;;;;0.20;0.20;;;;;;;12.90;56.67;99929.72;4998576;28;20523;-75
2022/04/03 08:00:14;;;;;;;0.20;0.20;;;;;;;12.89;55.60;99936.50;4980669;28;20030;-75
2022/04/03 08:02:41;;;;;;;0.20;0.20;;;;;;;12.18;57.70;99938.50;4981283;28;20473;-75
2022/04/03 08:05:07;;;;;;;0.20;0.20;;;;;;;11.51;58.94;99942.75;4981644;28;20050;-75
2022/04/03 08:07:36;;;;;;;0.20;0.20;;;;;;;11.45;60.43;99949.81;4981716;28;20022;-75
2022/04/03 08:10:05;;;;;;;0.20;0.20;;;;;;;10.93;66.19;99958.88;4982647;28;20034;-74
2022/04/03 08:12:32;;;;;;;0.20;0.20;;;;;;;10.92;66.22;99958.09;4981263;28;20054;-74
2022/04/03 08:14:57;;;;;;;0.20;0.20;;;;;;;10.82;64.84;99953.13;4979887;28;20081;-76
2022/04/03 08:17:26;;;;;;;0.20;0.20;;;;;;;10.43;67.47;99969.06;4980743;28;20030;-75
2022/04/03 08:19:52;;;;;;;0.20;0.20;;;;;;;10.55;67.27;99979.25;4980325;28;20030;-75
2022/04/03 08:22:18;;;;;;;0.22;0.22;;;;;;;10.82;67.00;99978.16;4980371;28;20053;-75
2022/04/03 08:24:44;;;;;;;0.20;0.20;;;;;;;10.92;65.80;99985.09;4980515;28;20030;-75
2022/04/03 08:27:10;;;;;;;0.20;0.20;;;;;;;10.89;64.86;99991.41;4980323;28;20023;-76
2022/04/03 08:29:38;;;;;;;0.28;0.28;;;;;;;10.66;65.59;99996.94;4981216;28;20034;-75
2022/04/03 08:32:07;;;;;;;0.30;0.30;;;;;;;10.99;64.92;99988.81;4982122;28;20125;-75
2022/04/03 08:34:34;;;;;;;0.30;0.30;;;;;;;11.34;64.69;100001.75;4981246;28;20026;-76
2022/04/03 08:37:00;;;;;;;0.20;0.20;;;;;;;11.51;63.95;100001.25;4981398;28;20112;-76
2022/04/03 08:39:26;;;;;;;0.20;0.20;;;;;;;12.32;61.13;100011.22;4980927;28;20476;-75
2022/04/03 08:41:52;;;;;;;0.20;0.20;;;;;;;12.19;60.51;100012.59;4981164;28;20041;-75
2022/04/03 08:44:19;;;;;;;0.20;0.20;;;;;;;12.35;60.15;100021.59;4981940;28;20030;-75
2022/04/03 08:46:49;;;;;;;0.20;0.20;;;;;;;12.85;57.89;100023.00;4980682;28;20176;-75
2022/04/03 08:49:19;;;;;;;0.20;0.20;;;;;;;13.01;57.55;100013.59;4981331;28;20360;-74
2022/04/03 08:51:50;;;;;;;0.30;0.30;;;;;;;13.03;55.19;100027.97;4980574;28;20030;-75
2022/04/03 08:54:19;;;;;;;0.20;0.20;;;;;;;13.24;57.13;100031.00;4980528;28;20117;-75
2022/04/03 08:56:45;;;;;;;0.20;0.20;;;;;;;13.38;53.58;100035.13;4981918;28;20053;-75
2022/04/03 08:59:11;;;;;;;0.20;0.20;;;;;;;12.35;55.55;100037.53;4981956;28;20031;-76
2022/04/03 09:01:38;;;;;;;0.20;0.20;;;;;;;12.42;57.48;100049.59;4981220;28;20461;-75
2022/04/03 09:04:05;;;;;;;0.20;0.20;;;;;;;12.01;59.03;100046.63;4979781;28;20100;-75
2022/04/03 09:06:31;;;;;;;0.20;0.20;;;;;;;12.02;59.37;100053.81;4980252;28;20034;-76
2022/04/03 09:08:57;;;;;;;0.20;0.20;;;;;;;11.83;59.08;100056.72;4975086;28;20065;-75
2022/04/03 09:11:30;;;;;;;0.20;0.20;;;;;;;11.72;59.02;100070.47;4979960;28;20092;-75
2022/04/03 09:14:09;;;;;;;0.20;0.20;;;;;;;11.83;59.32;100059.50;4998716;28;20031;-75
2022/04/03 09:16:39;;;;;;;0.20;0.20;;;;;;;11.82;60.83;100076.59;4981996;28;20122;-76
2022/04/03 09:19:05;;;;;;;0.20;0.20;;;;;;;11.85;61.60;100070.28;4982278;28;20030;-76
2022/04/03 09:21:32;;;;;;;0.20;0.20;;;;;;;11.45;60.67;100064.03;4981149;28;20026;-76
2022/04/03 09:24:11;;;;;;;0.28;0.28;;;;;;;11.60;62.11;100078.19;4981289;28;20368;-75
2022/04/03 09:26:43;;;;;;;0.20;0.20;;;;;;;11.65;61.71;100075.91;4980380;28;20039;-75
2022/04/03 09:29:16;;;;;;;0.20;0.20;;;;;;;11.86;62.80;100077.47;4980478;28;20499;-76
2022/04/03 09:31:46;;;;;;;0.20;0.20;;;;;;;12.17;61.77;100087.50;4980857;28;20030;-76
2022/04/03 09:34:22;;;;;;;0.20;0.20;;;;;;;12.62;59.00;100082.94;4980395;28;20129;-76
2022/04/03 09:37:04;;;;;;;0.20;0.20;;;;;;;12.93;56.61;100081.72;4980408;28;20053;-76
2022/04/03 09:39:30;;;;;;;0.20;0.20;;;;;;;13.76;53.36;100092.56;4980936;28;20030;-76
2022/04/03 09:42:05;;;;;;;0.20;0.20;;;;;;;14.79;49.08;100095.25;4979288;28;20040;-76
2022/04/03 09:44:41;;;;;;;0.20;0.20;;;;;;;15.92;47.18;100091.09;4978735;28;20107;-75
2022/04/03 09:47:20;;;;;;;0.20;0.20;;;;;;;16.09;42.81;100083.91;4996327;28;20038;-76
2022/04/03 09:49:55;;;;;;;0.20;0.20;;;;;;;15.87;43.83;100088.69;4978039;28;20473;-76
2022/04/03 09:52:33;;;;;;;0.20;0.20;;;;;;;14.29;47.63;100089.38;4978490;28;20026;-76
2022/04/03 09:54:59;;;;;;;0.20;0.20;;;;;;;12.95;51.07;100091.34;4978394;28;20037;-75
2022/04/03 09:57:25;;;;;;;0.20;0.20;;;;;;;12.53;51.46;100088.81;4978642;28;20029;-75
2022/04/03 09:59:53;;;;;;;0.20;0.20;;;;;;;12.30;52.96;100092.50;4978598;28;20026;-75
2022/04/03 10:02:20;;;;;;;0.20;0.20;;;;;;;11.76;53.53;100096.38;4979894;28;20053;-75
2022/04/03 10:04:49;;;;;;;0.20;0.20;;;;;;;11.75;53.01;100094.78;4979577;28;20033;-76
2022/04/03 10:07:18;;;;;;;0.20;0.20;;;;;;;11.31;54.20;100097.19;4980111;28;20521;-76
2022/04/03 10:09:48;;;;;;;0.20;0.20;;;;;;;11.31;54.67;100094.41;4980241;28;20037;-76
2022/04/03 10:12:19;;;;;;;0.20;0.20;;;;;;;11.37;58.34;100092.13;4979716;28;20086;-76
2022/04/03 10:14:46;;;;;;;0.20;0.20;;;;;;;11.67;56.44;100104.22;4979417;28;20358;-76
2022/04/03 10:17:13;;;;;;;0.20;0.20;;;;;;;12.05;55.60;100103.28;4978648;28;20106;-75
2022/04/03 10:19:42;;;;;;;0.20;0.20;;;;;;;12.41;54.50;100097.41;4979265;28;20031;-75
2022/04/03 10:22:16;;;;;;;0.20;0.20;;;;;;;13.60;50.38;100096.44;4980012;28;20042;-76
2022/04/03 10:24:43;;;;;;;;;;;;;;;13.50;50.13;100102.72;4999285;28;20113;-76
2022/04/03 10:27:14;;;;;;;0.20;0.20;;;;;;;14.05;50.22;100108.38;4981664;28;19932;-76
2022/04/03 10:29:42;;;;;;;0.20;0.20;;;;;;;13.87;49.64;100104.66;4981475;28;20113;-76
2022/04/03 10:32:27;;;;;;;0.20;0.20;;;;;;;13.46;49.55;100101.88;4984363;28;20050;-76
2022/04/03 10:34:56;;;;;;;0.20;0.20;;;;;;;12.62;50.07;100103.25;5001930;28;20031;-76
2022/04/03 10:37:30;;;;;;;0.20;0.20;;;;;;;12.23;50.61;100097.94;4983253;28;20488;-76
2022/04/03 10:40:04;;;;;;;0.30;0.30;;;;;;;12.09;52.15;100113.66;5000083;28;20376;-76
2022/04/03 10:42:30;;;;;;;0.20;0.20;;;;;;;12.10;53.57;100104.94;4983054;28;20030;-76
2022/04/03 10:45:11;;;;;;;0.20;0.20;;;;;;;11.98;52.68;100117.06;4982454;28;20084;-76
2022/04/03 10:47:40;;;;;;;0.20;0.20;;;;;;;12.22;53.79;100117.88;4983032;28;20035;-76
2022/04/03 10:50:07;;;;;;;0.20;0.20;;;;;;;12.09;54.02;100091.34;4981683;28;20030;-76
2022/04/03 10:52:36;;;;;;;0.30;0.30;;;;;;;12.02;56.15;100109.59;4981458;28;20090;-76
2022/04/03 10:55:30;;;;;;;0.20;0.20;;;;;;;12.49;56.39;100113.06;4982273;28;20125;-76
2022/04/03 10:58:06;;;;;;;0.20;0.20;;;;;;;12.49;55.93;100104.69;4981271;28;20092;-76
2022/04/03 11:00:36;;;;;;;0.20;0.20;;;;;;;13.30;54.89;100121.69;4982602;28;20038;-76
2022/04/03 11:03:22;;;;;;;0.20;0.20;;;;;;;14.10;53.11;100113.63;4981692;28;20034;-76
2022/04/03 11:05:48;;;;;;;0.20;0.20;;;;;;;13.61;52.04;100102.81;4974814;28;20484;-76
2022/04/03 11:08:36;;;;;;;0.20;0.20;;;;;;;14.23;52.45;100107.72;4981353;28;20157;-76
2022/04/03 11:11:09;;;;;;;0.20;0.20;;;;;;;14.00;50.29;100119.13;4980857;28;20059;-76
2022/04/03 11:13:39;;;;;;;0.20;0.20;;;;;;;13.97;51.19;100105.94;4981594;28;20030;-76
2022/04/03 11:16:09;;;;;;;0.20;0.20;;;;;;;14.24;51.68;100101.72;4981846;28;20123;-76
2022/04/03 11:18:45;;;;;;;0.20;0.20;;;;;;;13.99;49.47;100111.94;4981904;28;20038;-76
2022/04/03 11:21:25;;;;;;;0.20;0.20;;;;;;;14.16;50.21;100106.47;4981985;28;20034;-76
2022/04/03 11:24:13;;;;;;;0.20;0.20;;;;;;;14.46;47.56;100119.47;4999708;28;20132;-76
2022/04/03 11:26:43;;;;;;;0.20;0.20;;;;;;;14.60;47.07;100108.38;4981325;28;20041;-76
2022/04/03 11:29:10;;;;;;;0.20;0.20;;;;;;;14.22;48.71;100120.91;4982412;28;20049;-76
2022/04/03 11:31:39;;;;;;;0.20;0.20;;;;;;;14.24;49.42;100124.13;4982073;28;20030;-76
2022/04/03 11:34:07;;;;;;;0.20;0.20;;;;;;;14.14;49.15;100120.03;4981623;28;20034;-76
2022/04/03 11:36:33;;;;;;;0.20;0.20;;;;;;;13.87;49.76;100130.63;4982199;28;20496;-76
2022/04/03 11:39:01;;;;;;;0.25;0.25;;;;;;;14.28;49.18;100130.56;4983898;28;20034;-76
2022/04/03 11:41:29;;;;;;;0.20;0.20;;;;;;;14.40;48.80;100115.44;4984243;28;20473;-76
2022/04/03 11:44:02;;;;;;;0.20;0.20;;;;;;;14.05;48.26;100122.38;5000978;28;20018;-76
2022/04/03 11:46:29;;;;;;;0.20;0.20;;;;;;;14.24;48.58;100134.50;4984208;28;20112;-76
2022/04/03 11:48:54;;;;;;;0.20;0.20;;;;;;;14.25;48.46;100127.72;4985106;28;20101;-76
2022/04/03 11:51:21;;;;;;;0.20;0.20;;;;;;;13.82;49.92;100127.38;4985456;28;20034;-76
2022/04/03 11:53:54;;;;;;;0.20;0.20;;;;;;;13.60;50.66;100141.16;4984388;28;20113;-76
2022/04/03 11:56:23;;;;;;;0.20;0.20;;;;;;;13.75;49.19;100136.50;4983830;28;20066;-76
2022/04/03 11:58:53;;;;;;;0.20;0.20;;;;;;;14.12;49.08;100139.22;4982186;28;20034;-76
2022/04/03 12:01:36;;;;;;;0.20;0.20;;;;;;;14.19;45.71;100137.66;4981716;28;20471;-75
2022/04/03 12:04:08;;;;;;;0.20;0.20;;;;;;;14.12;45.71;100132.84;5000482;28;20037;-76
2022/04/03 12:06:38;;;;;;;0.20;0.20;;;;;;;14.44;45.41;100129.44;4982357;28;20088;-76
2022/04/03 12:09:13;;;;;;;0.20;0.20;;;;;;;14.02;46.45;100137.16;4982261;28;20023;-76
2022/04/03 12:11:40;;;;;;;0.20;0.20;;;;;;;14.07;45.97;100131.19;5000892;28;20047;-76
2022/04/03 12:14:08;;;;;;;0.20;0.20;;;;;;;14.45;45.48;100136.66;4983312;28;20076;-78